Home   Weather   Otah Kiti   Past weeks
Flag for Afghanistan

Past Weather in Otah Kiti, Afghanistan — Yesterday and Last 2 Weeks

Currently: 81 °F. Clear. (Weather station: Termez Airport, Afghanistan). See more current weather

Past Weather in Otah Kiti — Graph

°F

Otah Kiti Temperature Yesterday

Maximum temperature yesterday: 97 °F (at 1:30 pm)
Minimum temperature yesterday: 61 °F (at 4:00 am)
Average temperature yesterday: 79 °F

High & Low Weather Summary for the Past Weeks

 TemperatureHumidityPressure
High102 °F (Sep 7, 3:00 pm)67% (Sep 13, 5:00 am)29.98 "Hg (Sep 13, 5:00 am)
Low57 °F (Sep 12, 4:30 am)8% (Sep 3, 2:00 pm)29.59 "Hg (Sep 3, 4:30 pm)
Average79 °F28%29.82 "Hg
* Reported Sep 1 6:30 pm — Sep 16 6:30 pm, Otah Kiti. Weather by CustomWeather, © 2021

Note: Actual official high and low records may vary slightly from our data, if they occured in-between our weather recording intervals... More about our weather records

Otah Kiti Weather History for the Previous 24 Hours

Scroll right to see more
 ConditionsComfort  
Time TempWeatherWind HumidityBarometerVisibility
6:30 pm
Thu, Sep 16
88 °FClear.5 mph21%29.74 "Hg10 mi
6:00 pm91 °FSunny.2 mph16%29.77 "Hg10 mi
5:30 pm95 °FSunny.2 mph11%29.77 "Hg10 mi
5:00 pm95 °FSunny.5 mph14%29.77 "Hg10 mi
4:30 pm97 °FSunny.5 mph10%29.77 "Hg10 mi
4:00 pm99 °FPassing clouds.5 mph12%29.77 "HgN/A
3:30 pm99 °FPassing clouds.5 mph10%29.77 "HgN/A
3:00 pm99 °FSunny.2 mph11%29.80 "Hg10 mi
2:30 pm102 °FPassing clouds.5 mph8%29.80 "HgN/A
2:00 pm100 °FSunny.2 mph9%29.80 "Hg10 mi
1:30 pm99 °FSunny.2 mph10%29.83 "Hg10 mi
1:00 pm97 °FSunny.2 mph11%29.86 "Hg10 mi
12:30 pm95 °FSunny.5 mph11%29.86 "Hg10 mi
12:00 pm95 °FSunny.2 mph11%29.86 "Hg10 mi
11:30 am93 °FSunny.No wind13%29.89 "Hg10 mi
11:00 am90 °FSunny.2 mph18%29.89 "Hg10 mi
10:30 am86 °FPassing clouds.5 mph22%29.92 "HgN/A
10:00 am86 °FSunny.2 mph22%29.92 "Hg10 mi
9:30 am84 °FSunny.2 mph22%29.92 "Hg10 mi
9:00 am81 °FSunny.2 mph26%29.92 "Hg10 mi
8:30 am77 °FSunny.2 mph30%29.92 "Hg10 mi
8:00 am73 °FSunny.5 mph38%29.92 "Hg10 mi
7:30 am70 °FSunny.2 mph46%29.89 "Hg10 mi
7:00 am66 °FPassing clouds.5 mph52%29.89 "HgN/A
6:30 am63 °FSunny.7 mph59%29.89 "Hg10 mi
6:00 am61 °FSunny.2 mph63%29.86 "Hg10 mi
5:30 am61 °FClear.5 mph63%29.86 "Hg10 mi
5:00 am61 °FClear.5 mph63%29.86 "Hg10 mi
4:30 am63 °FClear.5 mph56%29.86 "Hg10 mi
4:00 am64 °FClear.7 mph52%29.86 "Hg10 mi
3:30 am63 °FClear.5 mph59%29.86 "Hg10 mi
3:00 am63 °FPassing clouds.5 mph59%29.86 "HgN/A
2:30 am63 °FPassing clouds.7 mph59%29.86 "HgN/A
2:00 am66 °FClear.5 mph52%29.86 "Hg10 mi
1:30 am66 °FClear.7 mph49%29.83 "Hg10 mi
1:00 am68 °FClear.7 mph40%29.83 "Hg10 mi
12:30 am72 °FClear.No wind41%29.86 "Hg10 mi
12:00 am72 °FClear.5 mph41%29.83 "Hg10 mi
11:30 pm
Wed, Sep 15
73 °FClear.5 mph41%29.86 "Hg10 mi
11:00 pm70 °FClear.2 mph53%29.86 "Hg10 mi
10:30 pm73 °FClear.No wind41%29.86 "Hg10 mi
10:00 pm72 °FClear.5 mph44%29.86 "Hg10 mi
9:30 pm75 °FClear.5 mph44%29.86 "Hg10 mi
9:00 pm77 °FClear.5 mph34%29.86 "Hg10 mi
8:30 pm77 °FClear.2 mph36%29.86 "Hg10 mi
8:00 pm81 °FClear.2 mph26%29.83 "Hg10 mi
7:30 pm82 °FClear.No wind23%29.83 "Hg10 mi
7:00 pm82 °FClear.2 mph23%29.83 "Hg10 mi
Weather by CustomWeather, © 2021

See weather overview